createdAt,value
2017-11-20T00:00:15.289Z,96.4
2017-11-20T00:01:15.257Z,96.4
2017-11-20T00:02:15.258Z,96.64
2017-11-20T00:03:15.234Z,96.26
2017-11-20T00:04:15.228Z,96.4
2017-11-20T00:05:15.209Z,96.26
2017-11-20T00:06:15.188Z,96.45
2017-11-20T00:07:15.191Z,96.54
2017-11-20T00:08:15.155Z,96.35
2017-11-20T00:09:15.138Z,96.54
2017-11-20T00:10:15.133Z,96.45
2017-11-20T00:11:15.111Z,96.64
2017-11-20T00:12:15.101Z,96.54
2017-11-20T00:13:15.087Z,96.54
2017-11-20T00:14:15.085Z,96.54
2017-11-20T00:15:15.049Z,96.45
2017-11-20T00:16:15.046Z,96.54
2017-11-20T00:17:15.028Z,96.54
2017-11-20T00:18:15.011Z,96.35
2017-11-20T00:19:14.993Z,96.54
2017-11-20T00:20:14.976Z,96.35
2017-11-20T00:21:14.969Z,96.45
2017-11-20T00:22:14.950Z,96.73
2017-11-20T00:23:14.932Z,96.45
2017-11-20T00:24:14.918Z,96.16
2017-11-20T00:25:14.909Z,96.54
2017-11-20T00:26:14.920Z,96.16
2017-11-20T00:27:14.874Z,96.54
2017-11-20T00:28:14.883Z,96.16
2017-11-20T00:29:14.849Z,96.26
2017-11-20T00:30:14.829Z,96.35
2017-11-20T00:31:14.815Z,96.45
2017-11-20T00:32:14.819Z,96.54
2017-11-20T00:33:14.791Z,96.45
2017-11-20T00:34:14.770Z,96.26
2017-11-20T00:35:14.755Z,96.54
2017-11-20T00:36:14.741Z,96.54
2017-11-20T00:37:14.725Z,96.64
2017-11-20T00:38:14.712Z,96.45
2017-11-20T00:39:14.702Z,96.16
2017-11-20T00:40:14.423Z,96.35
2017-11-20T00:41:14.668Z,96.45
2017-11-20T00:42:14.651Z,96.64
2017-11-20T00:43:14.634Z,96.64
2017-11-20T00:44:14.638Z,96.35
2017-11-20T00:45:14.611Z,96.54
2017-11-20T00:46:14.591Z,96.26
2017-11-20T00:47:14.579Z,96.35
2017-11-20T00:48:14.564Z,96.45
2017-11-20T00:49:14.551Z,96.54
2017-11-20T00:50:14.531Z,96.45
2017-11-20T00:51:14.519Z,96.26
2017-11-20T00:52:14.499Z,96.45
2017-11-20T00:53:14.490Z,96.26
2017-11-20T00:54:14.470Z,96.35
2017-11-20T00:55:14.462Z,96.26
2017-11-20T00:56:14.464Z,96.45
2017-11-20T00:57:14.426Z,96.26
2017-11-20T00:58:14.420Z,96.45
2017-11-20T00:59:14.397Z,96.26
2017-11-20T01:00:14.385Z,96.26
2017-11-20T01:01:14.372Z,96.26
2017-11-20T01:02:14.352Z,96.26
2017-11-20T01:03:14.340Z,95.97
2017-11-20T01:04:14.331Z,96.35
2017-11-20T01:05:14.311Z,96.45
2017-11-20T01:06:14.293Z,96.16
2017-11-20T01:07:14.275Z,96.45
2017-11-20T01:08:14.262Z,96.54
2017-11-20T01:09:14.247Z,96.35
2017-11-20T01:10:14.231Z,96.45
2017-11-20T01:11:14.215Z,96.16
2017-11-20T01:12:14.210Z,96.45
2017-11-20T01:13:14.189Z,96.07
2017-11-20T01:14:14.176Z,96.45
2017-11-20T01:15:14.163Z,96.16
2017-11-20T01:16:14.142Z,96.35
2017-11-20T01:17:14.127Z,96.45
2017-11-20T01:18:13.852Z,96.16
2017-11-20T01:19:14.108Z,96.35
2017-11-20T01:20:14.085Z,96.35
2017-11-20T01:21:14.086Z,96.26
2017-11-20T01:22:14.047Z,96.35
2017-11-20T01:23:14.033Z,96.16
2017-11-20T01:24:14.020Z,96.45
2017-11-20T01:25:14.004Z,96.16
2017-11-20T01:26:13.988Z,96.35
2017-11-20T01:27:13.715Z,96.16
2017-11-20T01:28:13.958Z,96.26
2017-11-20T01:29:13.946Z,96.35
2017-11-20T01:30:13.929Z,96.26
2017-11-20T01:31:13.922Z,96.45
2017-11-20T01:32:13.900Z,96.26
2017-11-20T01:33:13.886Z,96.45
2017-11-20T01:34:13.875Z,96.26
2017-11-20T01:35:13.856Z,96.45
2017-11-20T01:36:13.840Z,96.45
2017-11-20T01:37:13.822Z,96.45
2017-11-20T01:38:13.807Z,96.16
2017-11-20T01:39:13.790Z,96.26
2017-11-20T01:40:13.788Z,96.73
2017-11-20T01:41:13.762Z,96.83
2017-11-20T01:42:13.750Z,96.83
2017-11-20T01:43:13.732Z,96.83
2017-11-20T01:44:13.718Z,96.45
2017-11-20T01:45:13.726Z,96.35
2017-11-20T01:46:13.691Z,96.26
2017-11-20T01:47:13.671Z,96.73
2017-11-20T01:48:13.658Z,96.92
2017-11-20T01:49:13.644Z,96.45
2017-11-20T01:50:13.632Z,96.83
2017-11-20T01:51:13.609Z,96.83
2017-11-20T01:52:13.591Z,96.83
2017-11-20T01:53:13.586Z,96.64
2017-11-20T01:54:13.562Z,96.73
2017-11-20T01:55:13.547Z,96.92
2017-11-20T01:56:13.535Z,96.83
2017-11-20T01:57:13.523Z,96.92
2017-11-20T01:58:13.503Z,96.92
2017-11-20T01:59:13.490Z,96.92
2017-11-20T02:00:13.472Z,96.64
2017-11-20T02:01:13.461Z,96.64
2017-11-20T02:02:13.449Z,96.92
2017-11-20T02:03:13.442Z,96.59
2017-11-20T02:04:13.414Z,96.73
2017-11-20T02:05:13.397Z,96.69
2017-11-20T02:06:13.380Z,96.64
2017-11-20T02:07:13.109Z,96.69
2017-11-20T02:08:13.353Z,96.59
2017-11-20T02:09:13.338Z,96.59
2017-11-20T02:10:13.321Z,96.69
2017-11-20T02:11:13.307Z,96.69
2017-11-20T02:12:13.289Z,96.69
2017-11-20T02:13:13.274Z,96.59
2017-11-20T02:14:13.261Z,96.59
2017-11-20T02:15:13.246Z,96.69
2017-11-20T02:16:13.230Z,96.59
2017-11-20T02:17:13.217Z,97.25
2017-11-20T02:18:13.194Z,96.69
2017-11-20T02:19:13.177Z,96.59
2017-11-20T02:20:13.171Z,96.5
2017-11-20T02:21:13.155Z,96.88
2017-11-20T02:22:13.136Z,96.97
2017-11-20T02:23:13.131Z,96.78
2017-11-20T02:24:13.112Z,97.25
2017-11-20T02:25:13.091Z,97.25
2017-11-20T02:26:13.084Z,97.06
2017-11-20T02:27:13.057Z,96.97
2017-11-20T02:28:13.048Z,97.16
2017-11-20T02:29:13.031Z,96.78
2017-11-20T02:30:13.026Z,97.16
2017-11-20T02:31:13.001Z,96.69
2017-11-20T02:32:12.999Z,97.34
2017-11-20T02:33:12.969Z,96.69
2017-11-20T02:34:12.693Z,96.78
2017-11-20T02:35:12.942Z,96.88
2017-11-20T02:36:12.923Z,96.88
2017-11-20T02:37:12.907Z,96.88
2017-11-20T02:38:12.891Z,96.88
2017-11-20T02:39:12.886Z,96.97
2017-11-20T02:40:12.868Z,96.97
2017-11-20T02:41:12.843Z,97.06
2017-11-20T02:42:12.829Z,97.06
2017-11-20T02:43:12.820Z,96.97
2017-11-20T02:44:12.800Z,97.06
2017-11-20T02:45:12.783Z,97.06
2017-11-20T02:46:12.767Z,96.5
2017-11-20T02:47:12.747Z,97.06
2017-11-20T02:48:12.734Z,97.25
2017-11-20T02:49:12.715Z,96.97
2017-11-20T02:50:12.702Z,97.34
2017-11-20T02:51:12.692Z,97.25
2017-11-20T02:52:12.672Z,97.25
2017-11-20T02:53:12.656Z,97.06
2017-11-20T02:54:12.655Z,96.97
2017-11-20T02:55:12.640Z,97.06
2017-11-20T02:56:12.614Z,97.06
2017-11-20T02:57:12.593Z,97.34
2017-11-20T02:58:12.580Z,97.16
2017-11-20T02:59:12.565Z,97.06
2017-11-20T03:00:12.551Z,97.25
2017-11-20T03:01:12.529Z,97.25
2017-11-20T03:02:12.521Z,97.16
2017-11-20T03:03:12.713Z,97.25
2017-11-20T03:04:12.486Z,97.25
2017-11-20T03:05:12.467Z,97.25
2017-11-20T03:06:12.453Z,96.97
2017-11-20T03:07:12.446Z,97.25
2017-11-20T03:08:12.422Z,97.16
2017-11-20T03:09:12.431Z,96.97
2017-11-20T03:10:12.132Z,97.06
2017-11-20T03:11:12.376Z,97.25
2017-11-20T03:12:12.358Z,97.25
2017-11-20T03:13:12.086Z,97.25
2017-11-20T03:14:12.329Z,97.25
2017-11-20T03:15:12.312Z,97.25
2017-11-20T03:16:12.299Z,97.25
2017-11-20T03:17:12.023Z,97.16
2017-11-20T03:18:12.266Z,97.25
2017-11-20T03:19:12.249Z,97.34
2017-11-20T03:20:12.237Z,97.34
2017-11-20T03:21:12.218Z,97.34
2017-11-20T03:22:12.203Z,97.25
2017-11-20T03:23:12.189Z,96.88
2017-11-20T03:24:12.174Z,97.25
2017-11-20T03:25:12.159Z,97.34
2017-11-20T03:26:11.881Z,97.34
2017-11-20T03:27:12.137Z,97.25
2017-11-20T03:28:12.107Z,97.44
2017-11-20T03:29:12.092Z,97.25
2017-11-20T03:30:12.090Z,97.25
2017-11-20T03:31:12.071Z,97.34
2017-11-20T03:32:12.049Z,97.34
2017-11-20T03:33:12.031Z,97.25
2017-11-20T03:34:12.017Z,97.25
2017-11-20T03:35:12.010Z,97.25
2017-11-20T03:36:11.987Z,96.97
2017-11-20T03:37:11.966Z,96.97
2017-11-20T03:38:11.964Z,96.88
2017-11-20T03:39:11.936Z,97.06
2017-11-20T03:40:11.916Z,97.25
2017-11-20T03:41:11.906Z,97.06
2017-11-20T03:42:11.890Z,97.25
2017-11-20T03:43:11.874Z,96.88
2017-11-20T03:44:11.864Z,96.12
2017-11-20T03:45:11.848Z,95.93
2017-11-20T03:46:11.830Z,95.74
2017-11-20T03:47:11.809Z,96.26
2017-11-20T03:48:11.795Z,96.45
2017-11-20T03:49:11.783Z,96.26
2017-11-20T03:50:11.768Z,96.07
2017-11-20T03:51:11.757Z,95.59
2017-11-20T03:52:11.735Z,95.88
2017-11-20T03:53:11.719Z,95.78
2017-11-20T03:54:11.711Z,95.88
2017-11-20T03:55:11.701Z,95.69
2017-11-20T03:56:11.679Z,95.88
2017-11-20T03:57:11.661Z,95.59
2017-11-20T03:58:11.645Z,95.69
2017-11-20T03:59:11.638Z,95.69
2017-11-20T04:00:11.612Z,95.78
2017-11-20T04:01:11.596Z,95.83
2017-11-20T04:02:11.585Z,95.74
2017-11-20T04:03:11.566Z,96.02
2017-11-20T04:04:11.555Z,95.45
2017-11-20T04:05:11.535Z,95.64
2017-11-20T04:06:11.523Z,95.93
2017-11-20T04:07:11.508Z,95.64
2017-11-20T04:08:11.491Z,95.83
2017-11-20T04:09:11.478Z,95.83
2017-11-20T04:10:11.477Z,95.93
2017-11-20T04:11:11.448Z,95.83
2017-11-20T04:12:11.432Z,96.4
2017-11-20T04:13:11.416Z,96.21
2017-11-20T04:14:11.405Z,96.26
2017-11-20T04:15:11.388Z,96.26
2017-11-20T04:16:11.372Z,96.26
2017-11-20T04:17:11.359Z,96.17
2017-11-20T04:18:11.346Z,96.17
2017-11-20T04:19:11.330Z,96.26
2017-11-20T04:20:11.320Z,96.17
2017-11-20T04:21:11.299Z,96.26
2017-11-20T04:22:11.295Z,95.88
2017-11-20T04:23:11.274Z,95.6
2017-11-20T04:24:11.262Z,95.69
2017-11-20T04:25:10.986Z,95.69
2017-11-20T04:26:10.973Z,95.5
2017-11-20T04:27:11.213Z,95.36
2017-11-20T04:28:11.209Z,96.03
2017-11-20T04:29:11.190Z,95.65
2017-11-20T04:30:10.916Z,96.22
2017-11-20T04:31:11.159Z,95.93
2017-11-20T04:32:10.888Z,95.93
2017-11-20T04:33:11.132Z,95.55
2017-11-20T04:34:11.122Z,95.45
2017-11-20T04:35:11.108Z,95.55
2017-11-20T04:36:11.095Z,94.89
2017-11-20T04:37:11.079Z,94.89
2017-11-20T04:38:11.059Z,94.89
2017-11-20T04:39:11.046Z,94.98
2017-11-20T04:40:11.043Z,94.89
2017-11-20T04:41:11.031Z,95.07
2017-11-20T04:42:11.005Z,95.41
2017-11-20T04:43:10.997Z,95.31
2017-11-20T04:44:10.722Z,95.03
2017-11-20T04:45:10.972Z,94.84
2017-11-20T04:46:10.958Z,95.03
2017-11-20T04:47:10.941Z,95.03
2017-11-20T04:48:10.945Z,95.31
2017-11-20T04:49:10.653Z,94.27
2017-11-20T04:50:10.901Z,94.93
2017-11-20T04:51:10.888Z,94.18
2017-11-20T04:52:10.872Z,94.65
2017-11-20T04:53:10.864Z,95.03
2017-11-20T04:54:10.843Z,94.46
2017-11-20T04:55:10.834Z,94.84
2017-11-20T04:56:10.823Z,94.27
2017-11-20T04:57:10.804Z,94.27
2017-11-20T04:58:10.791Z,94.56
2017-11-20T04:59:10.781Z,94.65
2017-11-20T05:00:10.762Z,94.27
2017-11-20T05:01:10.495Z,94.84
2017-11-20T05:02:10.739Z,94.84
2017-11-20T05:03:10.724Z,94.27
2017-11-20T05:04:10.713Z,94.27
2017-11-20T05:05:10.704Z,94.65
2017-11-20T05:06:10.683Z,94.27
2017-11-20T05:07:10.673Z,94.84
2017-11-20T05:08:10.660Z,94.84
2017-11-20T05:09:10.647Z,94.84
2017-11-20T05:10:10.635Z,94.56
2017-11-20T05:11:10.620Z,94.6
2017-11-20T05:12:10.607Z,94.42
2017-11-20T05:13:10.595Z,94.6
2017-11-20T05:14:10.582Z,94.7
2017-11-20T05:15:10.570Z,94.23
2017-11-20T05:16:10.556Z,94.51
2017-11-20T05:17:10.543Z,94.7
2017-11-20T05:18:10.535Z,94.42
2017-11-20T05:19:10.521Z,94.42
2017-11-20T05:20:10.246Z,94.89
2017-11-20T05:21:10.495Z,94.03
2017-11-20T05:22:10.221Z,94.23
2017-11-20T05:23:10.466Z,94.13
2017-11-20T05:24:10.455Z,94.7
2017-11-20T05:25:10.444Z,94.6
2017-11-20T05:26:10.426Z,94.79
2017-11-20T05:27:10.417Z,94.79
2017-11-20T05:28:10.407Z,94.51
2017-11-20T05:29:10.387Z,94.6
2017-11-20T05:30:10.380Z,94.6
2017-11-20T05:31:10.372Z,94.51
2017-11-20T05:32:10.352Z,94.42
2017-11-20T05:33:10.343Z,94.13
2017-11-20T05:34:10.323Z,94.79
2017-11-20T05:35:10.318Z,94.98
2017-11-20T05:36:10.300Z,94.84
2017-11-20T05:37:10.287Z,94.27
2017-11-20T05:38:10.273Z,94.7
2017-11-20T05:39:10.260Z,94.89
2017-11-20T05:40:10.251Z,95.03
2017-11-20T05:41:10.236Z,94.46
2017-11-20T05:42:10.220Z,94.46
2017-11-20T05:43:10.210Z,94.56
2017-11-20T05:44:10.198Z,95.12
2017-11-20T05:45:10.183Z,93.99
2017-11-20T05:46:10.171Z,94.42
2017-11-20T05:47:10.161Z,94.32
2017-11-20T05:48:10.147Z,94.51
2017-11-20T05:49:10.134Z,94.13
2017-11-20T05:50:10.118Z,94.7
2017-11-20T05:51:10.107Z,94.7
2017-11-20T05:52:10.092Z,94.79
2017-11-20T05:53:10.085Z,94.6
2017-11-20T05:54:10.068Z,94.13
2017-11-20T05:55:10.055Z,93.46
2017-11-20T05:56:10.064Z,93.94
2017-11-20T05:57:10.034Z,94.6
2017-11-20T05:58:10.022Z,94.42
2017-11-20T05:59:09.744Z,94.89
2017-11-20T06:00:09.994Z,94.89
2017-11-20T06:01:09.984Z,94.7
2017-11-20T06:02:09.965Z,94.42
2017-11-20T06:03:09.955Z,95.07
2017-11-20T06:04:09.936Z,94.37
2017-11-20T06:05:09.933Z,95.12
2017-11-20T06:06:09.915Z,94.37
2017-11-20T06:07:09.903Z,94.74
2017-11-20T06:08:09.630Z,94.6
2017-11-20T06:09:09.884Z,94.51
2017-11-20T06:10:09.861Z,94.89
2017-11-20T06:11:09.852Z,94.7
2017-11-20T06:12:09.578Z,94.79
2017-11-20T06:13:09.824Z,94.79
2017-11-20T06:14:09.825Z,94.42
2017-11-20T06:15:09.799Z,94.23
2017-11-20T06:16:09.527Z,94.42
2017-11-20T06:17:09.770Z,94.6
2017-11-20T06:18:09.771Z,94.42
2017-11-20T06:19:09.489Z,94.51
2017-11-20T06:20:09.477Z,94.79
2017-11-20T06:21:09.464Z,94.03
2017-11-20T06:22:09.706Z,94.03
2017-11-20T06:23:09.697Z,94.13
2017-11-20T06:24:09.682Z,94.03
2017-11-20T06:25:09.410Z,93.94
2017-11-20T06:26:09.660Z,94.13
2017-11-20T06:27:09.644Z,94.03
2017-11-20T06:28:09.646Z,93.84
2017-11-20T06:29:09.622Z,94.42
2017-11-20T06:30:09.607Z,94.6
2017-11-20T06:31:09.600Z,94.42
2017-11-20T06:32:09.585Z,94.6
2017-11-20T06:33:09.571Z,94.79
2017-11-20T06:34:09.558Z,94.7
2017-11-20T06:35:09.552Z,94.51
2017-11-20T06:36:09.532Z,94.51
2017-11-20T06:37:09.526Z,94.51
2017-11-20T06:38:09.508Z,94.7
2017-11-20T06:39:09.493Z,94.42
2017-11-20T06:40:09.517Z,94.23
2017-11-20T06:41:09.466Z,94.51
2017-11-20T06:42:09.457Z,94.42
2017-11-20T06:43:09.443Z,94.6
2017-11-20T06:44:09.436Z,94.37
2017-11-20T06:45:09.416Z,94.46
2017-11-20T06:46:09.407Z,94.6
2017-11-20T06:47:09.393Z,94.51
2017-11-20T06:48:09.388Z,94.84
2017-11-20T06:49:09.390Z,94.65
2017-11-20T06:50:09.355Z,94.93
2017-11-20T06:51:09.083Z,94.46
2017-11-20T06:52:09.332Z,94.74
2017-11-20T06:53:09.318Z,94.46
2017-11-20T06:54:09.307Z,94.74
2017-11-20T06:55:09.294Z,94.56
2017-11-20T06:56:09.027Z,94.65
2017-11-20T06:57:09.275Z,94.74
2017-11-20T06:58:09.263Z,94.65
2017-11-20T06:59:09.246Z,94.46
2017-11-20T07:00:09.237Z,94.74
2017-11-20T07:01:09.229Z,94.65
2017-11-20T07:02:09.206Z,94.93
2017-11-20T07:03:09.200Z,94.65
2017-11-20T07:04:09.189Z,94.65
2017-11-20T07:05:09.175Z,94.65
2017-11-20T07:06:08.900Z,94.74
2017-11-20T07:07:09.149Z,94.18
2017-11-20T07:08:09.151Z,94.18
2017-11-20T07:09:09.144Z,94.18
2017-11-20T07:10:09.116Z,94.84
2017-11-20T07:11:09.098Z,94.18
2017-11-20T07:12:09.086Z,93.89
2017-11-20T07:13:09.080Z,93.6
2017-11-20T07:14:09.086Z,94.08
2017-11-20T07:15:09.055Z,94.08
2017-11-20T07:16:09.060Z,93.89
2017-11-20T07:17:09.026Z,93.89
2017-11-20T07:18:09.022Z,93.8
2017-11-20T07:19:09.061Z,93.89
2017-11-20T07:20:09.041Z,93.99
2017-11-20T07:21:08.998Z,94.08
2017-11-20T07:22:08.987Z,94.08
2017-11-20T07:23:08.963Z,93.89
2017-11-20T07:24:08.713Z,93.7
2017-11-20T07:25:08.964Z,93.99
2017-11-20T07:26:08.938Z,93.8
2017-11-20T07:27:08.647Z,93.8
2017-11-20T07:28:08.904Z,94.03
2017-11-20T07:29:08.880Z,93.99
2017-11-20T07:30:08.618Z,93.99
2017-11-20T07:31:08.867Z,93.7
2017-11-20T07:32:08.867Z,94.08
2017-11-20T07:33:08.854Z,94.18
2017-11-20T07:34:08.824Z,94.27
2017-11-20T07:35:08.841Z,94.37
2017-11-20T07:36:08.840Z,94.84
2017-11-20T07:37:08.807Z,94.74
2017-11-20T07:38:08.785Z,94.65
2017-11-20T07:39:08.781Z,94.84
2017-11-20T07:40:08.751Z,94.65
2017-11-20T07:41:08.752Z,94.46
2017-11-20T07:42:08.469Z,94.56
2017-11-20T07:43:08.715Z,94.56
2017-11-20T07:44:08.701Z,94.84
2017-11-20T07:45:08.702Z,94.84
2017-11-20T07:46:08.420Z,94.84
2017-11-20T07:47:08.668Z,94.98
2017-11-20T07:48:08.675Z,94.79
2017-11-20T07:49:08.644Z,94.84
2017-11-20T07:50:08.657Z,94.98
2017-11-20T07:51:08.629Z,94.84
2017-11-20T07:52:08.626Z,94.56
2017-11-20T07:53:08.608Z,94.65
2017-11-20T07:54:08.326Z,94.37
2017-11-20T07:55:08.602Z,94.46
2017-11-20T07:56:08.566Z,94.65
2017-11-20T07:57:08.553Z,94.65
2017-11-20T07:58:08.574Z,94.56
2017-11-20T07:59:08.538Z,94.74
2017-11-20T08:00:08.531Z,94.84
2017-11-20T08:01:08.506Z,94.56
2017-11-20T08:02:08.496Z,94.18
2017-11-20T08:03:08.480Z,94.74
2017-11-20T08:04:08.475Z,94.65
2017-11-20T08:05:08.461Z,94.65
2017-11-20T08:06:08.456Z,94.65
2017-11-20T08:07:08.432Z,94.18
2017-11-20T08:08:08.420Z,94.74
2017-11-20T08:09:08.414Z,94.27
2017-11-20T08:10:08.405Z,94.74
2017-11-20T08:11:08.390Z,94.65
2017-11-20T08:12:08.385Z,94.46
2017-11-20T08:13:08.373Z,94.65
2017-11-20T08:14:08.351Z,94.56
2017-11-20T08:15:08.083Z,94.37
2017-11-20T08:16:08.336Z,94.46
2017-11-20T08:17:08.337Z,94.65
2017-11-20T08:18:08.318Z,94.74
2017-11-20T08:19:08.298Z,94.65
2017-11-20T08:20:08.295Z,95.03
2017-11-20T08:21:08.277Z,94.46
2017-11-20T08:22:08.265Z,94.46
2017-11-20T08:23:08.247Z,94.65
2017-11-20T08:24:08.256Z,94.46
2017-11-20T08:25:08.222Z,94.65
2017-11-20T08:26:08.222Z,94.46
2017-11-20T08:27:08.209Z,94.46
2017-11-20T08:28:08.198Z,94.7
2017-11-20T08:29:08.181Z,94.46
2017-11-20T08:30:08.172Z,94.65
2017-11-20T08:31:08.162Z,94.46
2017-11-20T08:32:08.164Z,95.03
2017-11-20T08:33:08.131Z,94.65
2017-11-20T08:34:08.130Z,94.56
2017-11-20T08:35:08.109Z,94.46
2017-11-20T08:36:07.837Z,95.12
2017-11-20T08:37:08.084Z,94.46
2017-11-20T08:38:07.813Z,95.03
2017-11-20T08:39:08.063Z,94.84
2017-11-20T08:40:08.056Z,94.46
2017-11-20T08:41:08.064Z,94.84
2017-11-20T08:42:08.289Z,95.03
2017-11-20T08:43:08.045Z,94.93
2017-11-20T08:44:08.030Z,94.37
2017-11-20T08:45:08.023Z,95.12
2017-11-20T08:46:07.745Z,94.65
2017-11-20T08:47:07.977Z,95.22
2017-11-20T08:48:07.995Z,94.46
2017-11-20T08:49:07.971Z,94.93
2017-11-20T08:50:07.970Z,95.79
2017-11-20T08:51:07.962Z,94.46
2017-11-20T08:52:07.909Z,94.65
2017-11-20T08:53:08.174Z,94.93
2017-11-20T08:54:07.907Z,94.46
2017-11-20T08:55:07.886Z,94.46
2017-11-20T08:56:07.606Z,94.37
2017-11-20T08:57:07.851Z,94.98
2017-11-20T08:58:07.843Z,94.18
2017-11-20T08:59:07.834Z,94.7
2017-11-20T09:00:07.864Z,95.36
2017-11-20T09:01:07.813Z,94.79
2017-11-20T09:02:07.791Z,94.6
2017-11-20T09:03:07.784Z,94.42
2017-11-20T09:04:07.781Z,94.42
2017-11-20T09:05:07.766Z,94.6
2017-11-20T09:06:07.492Z,94.79
2017-11-20T09:07:07.734Z,94.7
2017-11-20T09:08:07.755Z,94.6
2017-11-20T09:09:07.769Z,94.6
2017-11-20T09:10:07.711Z,94.51
2017-11-20T09:11:07.757Z,94.98
2017-11-20T09:12:07.676Z,94.89
2017-11-20T09:13:07.673Z,94.51
2017-11-20T09:14:07.664Z,94.7
2017-11-20T09:15:07.649Z,94.7
2017-11-20T09:16:07.664Z,94.79
2017-11-20T09:17:07.625Z,94.51
2017-11-20T09:18:07.616Z,94.89
2017-11-20T09:19:07.599Z,94.42
2017-11-20T09:20:07.331Z,94.79
2017-11-20T09:21:07.583Z,94.32
2017-11-20T09:22:07.344Z,93.94
2017-11-20T09:23:07.563Z,94.7
2017-11-20T09:24:07.549Z,94.79
2017-11-20T09:25:07.533Z,95.08
2017-11-20T09:26:07.278Z,94.93
2017-11-20T09:27:07.545Z,94.84
2017-11-20T09:28:07.523Z,94.46
2017-11-20T09:29:07.492Z,94.93
2017-11-20T09:30:07.478Z,94.56
2017-11-20T09:31:07.470Z,94.37
2017-11-20T09:32:07.199Z,94.93
2017-11-20T09:33:07.461Z,94.37
2017-11-20T09:34:07.469Z,93.99
2017-11-20T09:35:07.431Z,94.74
2017-11-20T09:36:07.429Z,94.56
2017-11-20T09:37:07.406Z,93.89
2017-11-20T09:38:07.394Z,94.37
2017-11-20T09:39:07.385Z,94.65
2017-11-20T09:40:07.404Z,93.99
2017-11-20T09:41:07.363Z,94.18
2017-11-20T09:42:07.347Z,94.56
2017-11-20T09:43:07.338Z,93.99
2017-11-20T09:44:07.339Z,94.93
2017-11-20T09:45:07.063Z,95.22
2017-11-20T09:46:07.340Z,94.84
2017-11-20T09:47:07.298Z,94.27
2017-11-20T09:48:07.283Z,94.03
2017-11-20T09:49:07.302Z,94.13
2017-11-20T09:50:07.306Z,94.03
2017-11-20T09:51:07.285Z,94.03
2017-11-20T09:52:07.258Z,94.13
2017-11-20T09:53:08.041Z,94.89
2017-11-20T09:54:07.245Z,94.13
2017-11-20T09:55:07.210Z,94.32
2017-11-20T09:56:07.219Z,93.94
2017-11-20T09:57:07.213Z,94.03
2017-11-20T09:58:07.188Z,94.13
2017-11-20T09:59:06.967Z,94.32
2017-11-20T10:00:07.194Z,94.6
2017-11-20T10:01:07.155Z,94.51
2017-11-20T10:02:07.155Z,94.7
2017-11-20T10:03:07.133Z,94.22
2017-11-20T10:04:07.376Z,94.32
2017-11-20T10:05:07.115Z,94.6
2017-11-20T10:06:07.117Z,94.22
2017-11-20T10:07:07.094Z,94.13
2017-11-20T10:08:07.076Z,94.32
2017-11-20T10:09:07.069Z,94.13
2017-11-20T10:10:07.067Z,94.42
2017-11-20T10:11:06.792Z,94.42
2017-11-20T10:12:06.775Z,94.79
2017-11-20T10:13:07.023Z,94.22
2017-11-20T10:14:07.266Z,94.03
2017-11-20T10:15:07.003Z,94.89
2017-11-20T10:16:06.993Z,94.51
2017-11-20T10:17:06.988Z,94.79
2017-11-20T10:18:07.002Z,96.12
2017-11-20T10:19:06.965Z,94.89
2017-11-20T10:20:06.975Z,95.94
2017-11-20T10:21:06.940Z,95.08
2017-11-20T10:22:06.930Z,95.65
2017-11-20T10:23:06.940Z,95.75
2017-11-20T10:24:06.910Z,94.98
2017-11-20T10:25:06.909Z,94.98
2017-11-20T10:26:06.905Z,95.08
2017-11-20T10:27:06.623Z,95.08
2017-11-20T10:28:06.864Z,94.79
2017-11-20T10:29:06.867Z,94.79
2017-11-20T10:30:06.858Z,95.27
2017-11-20T10:31:06.577Z,94.51
2017-11-20T10:32:06.567Z,94.42
2017-11-20T10:33:06.829Z,94.98
2017-11-20T10:34:06.844Z,94.98
2017-11-20T10:35:06.813Z,94.89
2017-11-20T10:36:06.848Z,94.6
2017-11-20T10:37:06.809Z,94.79
2017-11-20T10:38:06.516Z,95.27
2017-11-20T10:39:06.812Z,94.79
2017-11-20T10:40:07.253Z,94.89
2017-11-20T10:41:06.736Z,94.51
2017-11-20T10:42:06.726Z,94.98
2017-11-20T10:43:06.454Z,94.79
2017-11-20T10:44:06.711Z,94.98
2017-11-20T10:45:06.722Z,95.75
2017-11-20T10:46:06.681Z,94.79
2017-11-20T10:47:06.688Z,94.79
2017-11-20T10:48:06.667Z,94.79
2017-11-20T10:49:06.650Z,94.89
2017-11-20T10:50:06.667Z,94.7
2017-11-20T10:51:06.383Z,94.79
2017-11-20T10:52:06.645Z,94.89
2017-11-20T10:53:06.644Z,94.32
2017-11-20T10:54:06.632Z,94.13
2017-11-20T10:55:06.605Z,94.13
2017-11-20T10:56:06.582Z,93.7
2017-11-20T10:57:06.613Z,93.6
2017-11-20T10:58:06.604Z,94.27
2017-11-20T10:59:06.682Z,93.13
2017-11-20T11:00:06.620Z,93.32
2017-11-20T11:01:06.555Z,93.23
2017-11-20T11:02:06.531Z,93.55
2017-11-20T11:03:06.544Z,93.55
2017-11-20T11:04:06.505Z,93.27
2017-11-20T11:05:06.481Z,93.37
2017-11-20T11:06:06.235Z,93.46
2017-11-20T11:07:06.469Z,93.18
2017-11-20T11:08:06.527Z,93.18
2017-11-20T11:09:06.476Z,93.03
2017-11-20T11:10:06.436Z,92.7
2017-11-20T11:11:06.171Z,93.7
2017-11-20T11:12:06.445Z,93.22
2017-11-20T11:13:06.406Z,93.6
2017-11-20T11:14:06.415Z,92.84
2017-11-20T11:15:06.390Z,92.84
2017-11-20T11:16:06.123Z,92.94
2017-11-20T11:17:06.109Z,92.84
2017-11-20T11:18:06.372Z,93.41
2017-11-20T11:19:06.097Z,93.22
2017-11-20T11:20:06.369Z,92.79
2017-11-20T11:21:06.082Z,93.17
2017-11-20T11:22:06.329Z,92.98
2017-11-20T11:23:06.325Z,93.08
2017-11-20T11:24:06.316Z,95.17
2017-11-20T11:25:06.323Z,95.46
2017-11-20T11:26:06.291Z,94.32
2017-11-20T11:27:06.023Z,93.74
2017-11-20T11:28:06.282Z,93.27
2017-11-20T11:29:06.042Z,95.46
2017-11-20T11:30:06.272Z,93.74
2017-11-20T11:31:06.255Z,93.55
2017-11-20T11:32:06.245Z,93.37
2017-11-20T11:33:06.235Z,93.74
2017-11-20T11:34:06.230Z,93.55
2017-11-20T11:35:06.230Z,95.17
2017-11-20T11:36:06.202Z,94.13
2017-11-20T11:37:05.949Z,95.46
2017-11-20T11:38:06.183Z,94.7
2017-11-20T11:39:06.179Z,94.79
2017-11-20T11:40:06.183Z,94.22
2017-11-20T11:41:06.429Z,94.74
2017-11-20T11:42:06.151Z,94.27
2017-11-20T11:43:06.197Z,95.51
2017-11-20T11:44:06.140Z,94.27
2017-11-20T11:45:06.123Z,95.03
2017-11-20T11:46:06.120Z,95.03
2017-11-20T11:47:06.123Z,95.12
2017-11-20T11:48:06.102Z,95.79
2017-11-20T11:49:06.108Z,94.56
2017-11-20T11:50:06.364Z,95.41
2017-11-20T11:51:06.075Z,95.6
2017-11-20T11:52:06.075Z,95.84
2017-11-20T11:53:06.065Z,94.84
2017-11-20T11:54:06.050Z,95.27
2017-11-20T11:55:06.050Z,94.98
2017-11-20T11:56:05.769Z,95.56
2017-11-20T11:57:06.027Z,95.27
2017-11-20T11:58:06.008Z,95.08
2017-11-20T11:59:05.997Z,94.79
2017-11-20T12:00:05.751Z,95.27
2017-11-20T12:01:05.755Z,94.89
2017-11-20T12:02:05.970Z,94.89
2017-11-20T12:03:05.971Z,94.13
2017-11-20T12:04:05.965Z,95.08
2017-11-20T12:05:05.945Z,94.32
2017-11-20T12:06:05.689Z,94.32
2017-11-20T12:07:05.944Z,94.13
2017-11-20T12:08:05.914Z,94.42
2017-11-20T12:09:05.910Z,94.51
2017-11-20T12:10:05.635Z,94.79
2017-11-20T12:11:05.892Z,95.08
2017-11-20T12:12:05.620Z,94.03
2017-11-20T12:13:05.876Z,94.32
2017-11-20T12:14:05.877Z,94.22
2017-11-20T12:15:05.884Z,94.03
2017-11-20T12:16:05.884Z,94.08
2017-11-20T12:17:05.888Z,94.32
2017-11-20T12:18:05.597Z,94.27
2017-11-20T12:19:05.863Z,94.27
2017-11-20T12:20:05.585Z,93.79
2017-11-20T12:21:05.848Z,95.17
2017-11-20T12:22:05.525Z,94.42
2017-11-20T12:23:05.804Z,93.84
2017-11-20T12:24:05.540Z,94.32
2017-11-20T12:25:05.767Z,94.03
2017-11-20T12:26:05.744Z,94.27
2017-11-20T12:27:05.482Z,95.17
2017-11-20T12:28:05.483Z,94.42
2017-11-20T12:29:05.452Z,94.6
2017-11-20T12:30:06.063Z,94.6
2017-11-20T12:31:05.697Z,94.32
2017-11-20T12:32:05.711Z,94.89
2017-11-20T12:33:05.683Z,94.13
2017-11-20T12:34:05.708Z,94.51
2017-11-20T12:35:05.439Z,94.51
2017-11-20T12:36:05.649Z,94.51
2017-11-20T12:37:05.649Z,94.6
2017-11-20T12:38:05.657Z,94.6
2017-11-20T12:39:05.622Z,94.42
2017-11-20T12:40:05.353Z,94.7
2017-11-20T12:41:05.869Z,94.89
2017-11-20T12:42:05.328Z,94.03
2017-11-20T12:43:05.593Z,94.32
2017-11-20T12:44:05.569Z,94.32
2017-11-20T12:45:05.565Z,94.22
2017-11-20T12:46:05.577Z,94.22
2017-11-20T12:47:05.312Z,94.42
2017-11-20T12:48:05.609Z,94.32
2017-11-20T12:49:05.536Z,93.94
2017-11-20T12:50:05.516Z,94.13
2017-11-20T12:51:05.500Z,94.32
2017-11-20T12:52:05.502Z,94.51
2017-11-20T12:53:05.502Z,94.42
2017-11-20T12:54:05.468Z,94.42